createdAt,value
2019-06-26T00:00:08.998Z,7.95
2019-06-26T00:02:35.204Z,7.70
2019-06-26T00:05:01.462Z,7.33
2019-06-26T00:07:27.654Z,7.75
2019-06-26T00:09:53.814Z,8.30
2019-06-26T00:12:20.027Z,7.78
2019-06-26T00:14:46.193Z,8.05
2019-06-26T00:17:12.396Z,8.23
2019-06-26T00:19:38.537Z,7.62
2019-06-26T00:22:04.741Z,8.38
2019-06-26T00:24:30.914Z,8.33
2019-06-26T00:26:57.095Z,8.48
2019-06-26T00:29:23.291Z,9.28
2019-06-26T00:31:49.467Z,8.55
2019-06-26T00:34:15.666Z,8.13
2019-06-26T00:36:41.912Z,8.43
2019-06-26T00:39:08.130Z,8.80
2019-06-26T00:41:34.572Z,8.58
2019-06-26T00:44:00.785Z,8.40
2019-06-26T00:46:26.991Z,9.00
2019-06-26T00:48:53.133Z,9.03
2019-06-26T00:51:19.337Z,8.95
2019-06-26T00:53:45.515Z,8.63
2019-06-26T00:56:11.719Z,8.38
2019-06-26T00:58:37.875Z,8.38
2019-06-26T01:01:04.081Z,8.18
2019-06-26T01:03:30.246Z,8.50
2019-06-26T01:05:56.412Z,8.15
2019-06-26T01:08:22.614Z,8.65
2019-06-26T01:10:48.807Z,9.00
2019-06-26T01:13:14.957Z,8.75
2019-06-26T01:15:41.154Z,8.43
2019-06-26T01:18:07.340Z,8.40
2019-06-26T01:20:33.587Z,8.65
2019-06-26T01:22:59.753Z,8.63
2019-06-26T01:25:25.920Z,8.50
2019-06-26T01:27:52.110Z,8.43
2019-06-26T01:30:18.598Z,8.55
2019-06-26T01:32:44.767Z,8.55
2019-06-26T01:35:11.449Z,8.60
2019-06-26T01:37:37.635Z,8.53
2019-06-26T01:40:05.913Z,8.35
2019-06-26T01:42:32.083Z,8.93
2019-06-26T01:44:58.265Z,9.18
2019-06-26T01:47:24.442Z,9.08
2019-06-26T01:49:50.589Z,9.08
2019-06-26T01:52:16.777Z,8.60
2019-06-26T01:54:42.977Z,9.03
2019-06-26T01:57:09.171Z,9.08
2019-06-26T01:59:35.365Z,9.30
2019-06-26T02:02:01.524Z,9.00
2019-06-26T02:04:27.712Z,9.00
2019-06-26T02:06:53.905Z,9.78
2019-06-26T02:09:20.099Z,9.48
2019-06-26T02:11:46.281Z,9.88
2019-06-26T02:14:12.487Z,9.88
2019-06-26T02:16:38.642Z,9.48
2019-06-26T02:19:09.412Z,9.70
2019-06-26T02:21:35.628Z,9.90
2019-06-26T02:24:01.835Z,9.80
2019-06-26T02:26:27.987Z,9.65
2019-06-26T02:28:54.152Z,9.48
2019-06-26T02:31:20.341Z,9.63
2019-06-26T02:33:46.529Z,9.85
2019-06-26T02:36:12.671Z,9.93
2019-06-26T02:38:38.836Z,10.25
2019-06-26T02:41:05.046Z,11.12
2019-06-26T02:43:31.283Z,11.20
2019-06-26T02:45:57.471Z,11.48
2019-06-26T02:48:23.634Z,12.28
2019-06-26T02:50:49.868Z,12.20
2019-06-26T02:53:16.266Z,11.57
2019-06-26T02:55:42.432Z,9.95
2019-06-26T02:58:08.610Z,10.10
2019-06-26T03:00:34.797Z,9.73
2019-06-26T03:03:00.965Z,10.28
2019-06-26T03:05:27.157Z,9.90
2019-06-26T03:07:53.367Z,9.65
2019-06-26T03:10:19.537Z,9.25
2019-06-26T03:12:46.056Z,9.78
2019-06-26T03:15:12.915Z,10.30
2019-06-26T03:17:54.065Z,10.32
2019-06-26T03:20:07.769Z,10.88
2019-06-26T03:22:33.940Z,10.82
2019-06-26T03:25:00.143Z,10.08
2019-06-26T03:27:26.327Z,10.60
2019-06-26T03:29:52.476Z,10.70
2019-06-26T03:32:18.663Z,11.45
2019-06-26T03:34:44.827Z,11.30
2019-06-26T03:37:10.957Z,11.30
2019-06-26T03:39:37.132Z,11.68
2019-06-26T03:42:03.314Z,11.60
2019-06-26T03:44:29.648Z,11.35
2019-06-26T03:46:55.865Z,11.73
2019-06-26T03:49:22.056Z,11.70
2019-06-26T03:51:48.210Z,11.83
2019-06-26T03:54:14.394Z,12.10
2019-06-26T03:56:40.536Z,12.55
2019-06-26T03:59:06.688Z,12.85
2019-06-26T04:01:32.856Z,12.82
2019-06-26T04:03:59.016Z,12.85
2019-06-26T04:06:25.206Z,13.60
2019-06-26T04:08:51.402Z,12.05
2019-06-26T04:11:17.596Z,12.05
2019-06-26T04:13:43.747Z,11.78
2019-06-26T04:16:09.931Z,12.23
2019-06-26T04:18:36.088Z,12.40
2019-06-26T04:21:02.374Z,13.05
2019-06-26T04:23:28.589Z,12.65
2019-06-26T04:25:54.780Z,12.50
2019-06-26T04:28:20.932Z,12.98
2019-06-26T04:30:47.120Z,12.23
2019-06-26T04:33:13.268Z,12.47
2019-06-26T04:35:39.745Z,13.88
2019-06-26T04:38:05.940Z,13.43
2019-06-26T04:40:32.135Z,12.90
2019-06-26T04:42:58.326Z,12.82
2019-06-26T04:45:24.492Z,13.32
2019-06-26T04:47:51.030Z,13.20
2019-06-26T04:50:18.377Z,12.15
2019-06-26T04:52:44.563Z,12.50
2019-06-26T04:55:10.935Z,13.15
2019-06-26T04:57:37.128Z,13.40
2019-06-26T05:00:05.587Z,12.98
2019-06-26T05:02:31.783Z,13.88
2019-06-26T05:04:57.952Z,13.88
2019-06-26T05:07:24.147Z,14.23
2019-06-26T05:09:50.340Z,13.93
2019-06-26T05:12:16.538Z,13.60
2019-06-26T05:14:42.715Z,13.55
2019-06-26T05:17:08.996Z,14.10
2019-06-26T05:19:35.674Z,14.15
2019-06-26T05:22:01.846Z,13.68
2019-06-26T05:24:28.060Z,14.65
2019-06-26T05:26:54.239Z,15.28
2019-06-26T05:29:20.439Z,14.83
2019-06-26T05:31:46.634Z,14.93
2019-06-26T05:34:12.834Z,14.73
2019-06-26T05:36:38.992Z,15.63
2019-06-26T05:39:05.899Z,15.60
2019-06-26T05:41:32.093Z,16.23
2019-06-26T05:43:58.271Z,15.80
2019-06-26T05:46:30.940Z,16.80
2019-06-26T05:48:52.649Z,16.85
2019-06-26T05:51:19.097Z,16.15
2019-06-26T05:53:45.247Z,16.23
2019-06-26T05:56:11.438Z,17.15
2019-06-26T05:58:37.684Z,16.40
2019-06-26T06:01:04.367Z,16.23
2019-06-26T06:03:30.536Z,16.60
2019-06-26T06:05:56.833Z,17.62
2019-06-26T06:08:23.048Z,17.10
2019-06-26T06:10:49.242Z,18.32
2019-06-26T06:13:15.466Z,16.80
2019-06-26T06:15:41.635Z,17.02
2019-06-26T06:18:07.893Z,16.82
2019-06-26T06:20:38.159Z,16.17
2019-06-26T06:23:04.974Z,15.18
2019-06-26T06:25:31.131Z,15.00
2019-06-26T06:27:57.629Z,14.25
2019-06-26T06:30:23.820Z,13.83
2019-06-26T06:32:50.182Z,13.32
2019-06-26T06:35:16.394Z,13.75
2019-06-26T06:37:42.632Z,14.47
2019-06-26T06:40:09.189Z,13.03
2019-06-26T06:42:35.630Z,13.75
2019-06-26T06:45:04.483Z,12.90
2019-06-26T06:47:30.637Z,12.82
2019-06-26T06:49:56.990Z,12.25
2019-06-26T06:52:23.291Z,12.55
2019-06-26T06:54:49.688Z,11.95
2019-06-26T06:57:15.987Z,12.50
2019-06-26T06:59:42.178Z,11.30
2019-06-26T07:02:08.396Z,11.20
2019-06-26T07:04:34.715Z,11.63
2019-06-26T07:07:01.151Z,11.30
2019-06-26T07:09:27.789Z,11.22
2019-06-26T07:11:54.505Z,11.18
2019-06-26T07:14:20.959Z,10.85
2019-06-26T07:16:48.021Z,9.85
2019-06-26T07:19:14.228Z,10.75
2019-06-26T07:21:40.653Z,9.58
2019-06-26T07:24:07.352Z,10.03
2019-06-26T07:26:34.085Z,9.70
2019-06-26T07:29:00.375Z,10.35
2019-06-26T07:31:27.211Z,9.90
2019-06-26T07:33:55.827Z,9.95
2019-06-26T07:36:22.061Z,10.00
2019-06-26T07:38:48.385Z,9.43
2019-06-26T07:41:15.086Z,9.75
2019-06-26T07:43:41.638Z,9.85
2019-06-26T07:46:07.977Z,9.40
2019-06-26T07:48:34.734Z,9.83
2019-06-26T07:51:01.447Z,9.10
2019-06-26T07:53:27.907Z,9.08
2019-06-26T07:55:54.464Z,9.10
2019-06-26T07:58:21.640Z,8.88
2019-06-26T08:00:48.454Z,8.78
2019-06-26T08:03:15.453Z,9.05
2019-06-26T08:05:43.199Z,9.45
2019-06-26T08:08:12.190Z,9.45
2019-06-26T08:10:38.336Z,9.53
2019-06-26T08:13:07.090Z,10.13
2019-06-26T08:15:33.982Z,9.88
2019-06-26T08:18:01.627Z,9.55
2019-06-26T08:20:28.746Z,9.50
2019-06-26T08:22:55.141Z,9.78
2019-06-26T08:25:21.758Z,10.03
2019-06-26T08:27:48.947Z,9.78
2019-06-26T08:30:15.755Z,10.38
2019-06-26T08:32:42.320Z,10.18
2019-06-26T08:35:09.011Z,10.43
2019-06-26T08:37:35.495Z,9.70
2019-06-26T08:40:04.161Z,9.73
2019-06-26T08:42:30.743Z,9.45
2019-06-26T08:44:57.286Z,9.90
2019-06-26T08:47:24.047Z,10.03
2019-06-26T08:49:50.777Z,10.15
2019-06-26T08:52:17.577Z,10.05
2019-06-26T08:54:44.219Z,10.13
2019-06-26T08:57:11.106Z,9.83
2019-06-26T08:59:37.400Z,10.00
2019-06-26T09:02:04.224Z,10.03
2019-06-26T09:04:30.816Z,9.88
2019-06-26T09:06:57.382Z,10.60
2019-06-26T09:09:24.059Z,10.15
2019-06-26T09:11:50.617Z,10.25
2019-06-26T09:14:17.485Z,9.83
2019-06-26T09:16:44.007Z,9.80
2019-06-26T09:19:10.497Z,9.53
2019-06-26T09:21:36.928Z,10.00
2019-06-26T09:24:03.432Z,9.55
2019-06-26T09:26:29.886Z,9.35
2019-06-26T09:28:56.830Z,9.65
2019-06-26T09:31:23.411Z,9.03
2019-06-26T09:33:49.768Z,9.20
2019-06-26T09:36:16.432Z,8.70
2019-06-26T09:38:43.139Z,8.30
2019-06-26T09:41:09.506Z,8.08
2019-06-26T09:43:35.966Z,8.20
2019-06-26T09:46:02.447Z,7.92
2019-06-26T09:48:28.851Z,7.90
2019-06-26T09:50:55.424Z,7.20
2019-06-26T09:53:22.230Z,8.40
2019-06-26T09:55:49.001Z,7.80
2019-06-26T09:58:15.319Z,8.10
2019-06-26T10:00:41.983Z,7.65
2019-06-26T10:03:09.625Z,7.65
2019-06-26T10:05:36.236Z,7.22
2019-06-26T10:08:02.909Z,7.62
2019-06-26T10:10:29.497Z,7.35
2019-06-26T10:12:55.932Z,7.22
2019-06-26T10:15:22.519Z,7.22
2019-06-26T10:17:49.154Z,6.83
2019-06-26T10:20:17.391Z,7.05
2019-06-26T10:22:44.207Z,7.75
2019-06-26T10:25:11.744Z,6.90
2019-06-26T10:27:38.711Z,6.80
2019-06-26T10:30:06.137Z,7.00
2019-06-26T10:32:33.262Z,5.00
2019-06-26T10:34:59.865Z,6.70
2019-06-26T10:37:26.508Z,7.20
2019-06-26T10:39:53.352Z,7.12
2019-06-26T10:42:19.804Z,6.87
2019-06-26T10:44:46.500Z,6.15
2019-06-26T10:47:13.067Z,6.28
2019-06-26T10:49:39.389Z,6.90
2019-06-26T10:52:05.730Z,6.80
2019-06-26T10:54:31.938Z,7.00
2019-06-26T10:56:58.361Z,6.90
2019-06-26T10:59:24.674Z,5.80
2019-06-26T11:01:50.972Z,6.17
2019-06-26T11:04:17.230Z,6.67
2019-06-26T11:06:43.407Z,6.50
2019-06-26T11:09:09.676Z,5.72
2019-06-26T11:11:35.936Z,6.50
2019-06-26T11:14:03.710Z,7.08
2019-06-26T11:16:29.999Z,6.50
2019-06-26T11:18:56.266Z,6.55
2019-06-26T11:21:22.439Z,6.30
2019-06-26T11:23:48.744Z,6.28
2019-06-26T11:26:15.311Z,6.17
2019-06-26T11:28:41.500Z,6.40
2019-06-26T11:31:07.819Z,6.15
2019-06-26T11:33:34.115Z,6.65
2019-06-26T11:36:00.595Z,6.35
2019-06-26T11:38:26.909Z,6.22
2019-06-26T11:40:53.199Z,6.53
2019-06-26T11:43:19.512Z,6.72
2019-06-26T11:45:45.743Z,6.30
2019-06-26T11:48:12.167Z,6.47
2019-06-26T11:50:38.381Z,6.50
2019-06-26T11:53:04.565Z,6.35
2019-06-26T11:55:30.875Z,5.90
2019-06-26T11:57:57.145Z,5.95
2019-06-26T12:00:24.409Z,6.42
2019-06-26T12:02:50.711Z,6.28
2019-06-26T12:05:18.963Z,5.65
2019-06-26T12:07:45.165Z,6.10
2019-06-26T12:10:13.121Z,6.00
2019-06-26T12:12:39.484Z,6.15
2019-06-26T12:15:07.872Z,6.28
2019-06-26T12:17:34.120Z,6.87
2019-06-26T12:20:17.168Z,5.97
2019-06-26T12:22:28.852Z,6.10
2019-06-26T12:24:55.035Z,5.62
2019-06-26T12:27:21.258Z,6.00
2019-06-26T12:29:47.509Z,5.87
2019-06-26T12:32:13.739Z,5.33
2019-06-26T12:34:39.918Z,5.50
2019-06-26T12:37:06.138Z,5.58
2019-06-26T12:39:32.351Z,6.03
2019-06-26T12:41:58.557Z,5.65
2019-06-26T12:44:24.840Z,5.58
2019-06-26T12:46:51.013Z,5.45
2019-06-26T12:49:17.278Z,5.58
2019-06-26T12:51:43.583Z,5.08
2019-06-26T12:54:09.748Z,5.10
2019-06-26T12:56:36.067Z,4.90
2019-06-26T12:59:02.406Z,4.72
2019-06-26T13:01:28.797Z,5.10
2019-06-26T13:03:55.041Z,4.58
2019-06-26T13:06:21.234Z,5.55
2019-06-26T13:08:47.513Z,5.70
2019-06-26T13:11:13.985Z,5.62
2019-06-26T13:13:40.198Z,6.15
2019-06-26T13:16:06.409Z,5.37
2019-06-26T13:18:32.802Z,5.60
2019-06-26T13:20:58.988Z,5.60
2019-06-26T13:23:25.409Z,5.78
2019-06-26T13:25:51.601Z,6.53
2019-06-26T13:28:17.796Z,6.28
2019-06-26T13:30:44.050Z,7.20
2019-06-26T13:33:10.277Z,6.85
2019-06-26T13:35:36.580Z,5.92
2019-06-26T13:38:03.322Z,5.60
2019-06-26T13:40:29.651Z,5.25
2019-06-26T13:42:55.974Z,5.20
2019-06-26T13:45:22.260Z,6.00
2019-06-26T13:47:48.564Z,6.30
2019-06-26T13:50:15.395Z,5.97
2019-06-26T13:52:41.649Z,6.35
2019-06-26T13:55:09.137Z,6.72
2019-06-26T13:57:35.350Z,6.65
2019-06-26T14:00:04.348Z,6.22
2019-06-26T14:02:30.555Z,6.78
2019-06-26T14:04:56.791Z,6.53
2019-06-26T14:07:23.026Z,6.70
2019-06-26T14:09:49.398Z,6.53
2019-06-26T14:12:18.996Z,6.72
2019-06-26T14:14:56.786Z,6.70
2019-06-26T14:17:12.125Z,6.53
2019-06-26T14:19:38.318Z,6.65
2019-06-26T14:22:04.650Z,7.08
2019-06-26T14:24:30.871Z,6.90
2019-06-26T14:26:57.120Z,7.15
2019-06-26T14:29:23.858Z,6.62
2019-06-26T14:31:50.153Z,7.22
2019-06-26T14:34:16.337Z,7.22
2019-06-26T14:36:42.906Z,7.03
2019-06-26T14:39:09.093Z,6.72
2019-06-26T14:41:38.988Z,6.70
2019-06-26T14:44:03.562Z,6.80
2019-06-26T14:46:29.789Z,6.75
2019-06-26T14:48:56.025Z,7.12
2019-06-26T14:51:22.384Z,6.90
2019-06-26T14:53:48.698Z,7.45
2019-06-26T14:56:14.952Z,7.12
2019-06-26T14:58:41.625Z,6.55
2019-06-26T15:01:08.213Z,6.53
2019-06-26T15:03:34.717Z,6.42
2019-06-26T15:06:15.463Z,6.10
2019-06-26T15:08:29.034Z,6.33
2019-06-26T15:10:55.282Z,6.28
2019-06-26T15:13:21.479Z,6.50
2019-06-26T15:15:47.749Z,6.30
2019-06-26T15:18:14.140Z,6.55
2019-06-26T15:20:40.361Z,6.22
2019-06-26T15:23:06.537Z,6.40
2019-06-26T15:25:32.787Z,5.70
2019-06-26T15:27:58.963Z,6.25
2019-06-26T15:30:25.167Z,5.90
2019-06-26T15:32:51.360Z,6.15
2019-06-26T15:35:17.537Z,5.47
2019-06-26T15:37:44.917Z,5.78
2019-06-26T15:40:13.942Z,5.60
2019-06-26T15:42:40.327Z,6.03
2019-06-26T15:45:07.099Z,6.53
2019-06-26T15:47:33.318Z,6.33
2019-06-26T15:49:59.585Z,6.55
2019-06-26T15:52:25.836Z,6.62
2019-06-26T15:54:52.199Z,6.78
2019-06-26T15:57:18.339Z,6.62
2019-06-26T15:59:44.553Z,6.80
2019-06-26T16:02:10.867Z,7.10
2019-06-26T16:04:37.079Z,7.42
2019-06-26T16:07:03.425Z,7.22
2019-06-26T16:09:29.707Z,7.47
2019-06-26T16:11:58.834Z,7.53
2019-06-26T16:14:23.977Z,7.35
2019-06-26T16:16:52.539Z,7.85
2019-06-26T16:19:23.634Z,8.20
2019-06-26T16:21:49.848Z,7.87
2019-06-26T16:24:16.189Z,7.75
2019-06-26T16:26:42.539Z,8.43
2019-06-26T16:29:08.769Z,8.05
2019-06-26T16:31:35.334Z,8.18
2019-06-26T16:34:01.564Z,7.90
2019-06-26T16:36:27.830Z,8.30
2019-06-26T16:38:54.067Z,8.90
2019-06-26T16:41:20.301Z,8.35
2019-06-26T16:43:46.836Z,8.63
2019-06-26T16:46:13.428Z,9.05
2019-06-26T16:48:39.654Z,9.10
2019-06-26T16:51:06.071Z,8.98
2019-06-26T16:53:35.389Z,8.48
2019-06-26T16:56:00.537Z,8.50
2019-06-26T16:58:26.740Z,8.48
2019-06-26T17:00:52.965Z,8.28
2019-06-26T17:03:19.173Z,7.97
2019-06-26T17:05:45.458Z,7.75
2019-06-26T17:08:11.709Z,7.25
2019-06-26T17:10:37.941Z,8.33
2019-06-26T17:13:04.199Z,7.97
2019-06-26T17:15:30.463Z,8.25
2019-06-26T17:17:56.690Z,8.13
2019-06-26T17:20:23.007Z,8.70
2019-06-26T17:23:04.607Z,8.38
2019-06-26T17:25:17.375Z,8.20
2019-06-26T17:27:43.636Z,8.00
2019-06-26T17:30:10.645Z,8.48
2019-06-26T17:32:36.862Z,8.90
2019-06-26T17:35:06.920Z,8.90
2019-06-26T17:37:33.139Z,8.83
2019-06-26T17:39:59.344Z,8.55
2019-06-26T17:42:25.627Z,8.80
2019-06-26T17:44:51.958Z,8.68
2019-06-26T17:47:18.119Z,8.73
2019-06-26T17:49:44.432Z,8.38
2019-06-26T17:52:10.618Z,8.35
2019-06-26T17:54:36.902Z,8.30
2019-06-26T17:57:03.080Z,7.95
2019-06-26T17:59:29.339Z,7.67
2019-06-26T18:01:55.681Z,7.78
2019-06-26T18:04:21.915Z,7.87
2019-06-26T18:06:48.144Z,7.80
2019-06-26T18:09:14.408Z,7.85
2019-06-26T18:11:41.165Z,7.42
2019-06-26T18:14:07.380Z,7.47
2019-06-26T18:16:33.676Z,7.33
2019-06-26T18:18:59.889Z,7.12
2019-06-26T18:21:26.104Z,7.12
2019-06-26T18:23:52.291Z,7.22
2019-06-26T18:26:18.615Z,7.75
2019-06-26T18:28:44.796Z,7.60
2019-06-26T18:31:10.979Z,7.47
2019-06-26T18:33:37.355Z,7.37
2019-06-26T18:36:03.748Z,7.10
2019-06-26T18:38:29.948Z,7.00
2019-06-26T18:40:56.265Z,6.60
2019-06-26T18:43:22.810Z,7.12
2019-06-26T18:45:48.989Z,6.72
2019-06-26T18:48:18.784Z,7.08
2019-06-26T18:50:44.982Z,6.65
2019-06-26T18:53:11.217Z,6.58
2019-06-26T18:55:37.502Z,7.00
2019-06-26T18:58:04.039Z,6.37
2019-06-26T19:00:30.269Z,6.80
2019-06-26T19:02:56.445Z,6.75
2019-06-26T19:05:22.717Z,7.10
2019-06-26T19:07:48.959Z,7.00
2019-06-26T19:10:15.350Z,7.10
2019-06-26T19:12:41.731Z,7.60
2019-06-26T19:15:09.109Z,7.22
2019-06-26T19:17:35.319Z,7.17
2019-06-26T19:20:06.215Z,7.08
2019-06-26T19:22:32.421Z,7.28
2019-06-26T19:24:58.659Z,7.50
2019-06-26T19:27:24.923Z,7.40
2019-06-26T19:29:51.162Z,7.35
2019-06-26T19:32:17.408Z,7.12
2019-06-26T19:34:43.673Z,6.95
2019-06-26T19:37:09.931Z,7.55
2019-06-26T19:39:36.526Z,7.65
2019-06-26T19:42:02.747Z,7.60
2019-06-26T19:44:28.966Z,8.10
2019-06-26T19:46:55.174Z,7.90
2019-06-26T19:49:21.430Z,7.95
2019-06-26T19:51:47.904Z,8.63
2019-06-26T19:54:26.594Z,9.90
2019-06-26T19:56:42.226Z,9.68
2019-06-26T19:59:08.479Z,9.60
2019-06-26T20:01:34.719Z,10.03
2019-06-26T20:04:01.134Z,9.98
2019-06-26T20:06:27.438Z,10.03
2019-06-26T20:08:57.458Z,9.33
2019-06-26T20:11:21.926Z,9.60
2019-06-26T20:13:48.166Z,9.65
2019-06-26T20:16:14.691Z,9.25
2019-06-26T20:18:40.953Z,9.00
2019-06-26T20:21:07.283Z,8.78
2019-06-26T20:23:33.619Z,8.63
2019-06-26T20:25:59.919Z,8.20
2019-06-26T20:28:26.169Z,7.70
2019-06-26T20:30:52.925Z,8.10
2019-06-26T20:33:19.197Z,8.13
2019-06-26T20:35:45.408Z,8.35
2019-06-26T20:38:11.685Z,7.90
2019-06-26T20:40:37.946Z,8.18
2019-06-26T20:43:04.269Z,8.35
2019-06-26T20:45:30.504Z,8.00
2019-06-26T20:47:56.744Z,7.60
2019-06-26T20:50:22.989Z,7.97
2019-06-26T20:52:49.434Z,8.18
2019-06-26T20:55:16.114Z,7.37
2019-06-26T20:57:42.579Z,7.90
2019-06-26T21:00:09.146Z,7.58
2019-06-26T21:02:35.595Z,8.00
2019-06-26T21:05:05.810Z,8.03
2019-06-26T21:07:32.109Z,7.80
2019-06-26T21:09:58.437Z,7.53
2019-06-26T21:12:24.669Z,7.92
2019-06-26T21:14:50.828Z,7.35
2019-06-26T21:17:17.019Z,7.97
2019-06-26T21:19:43.255Z,7.25
2019-06-26T21:22:09.444Z,8.00
2019-06-26T21:24:35.943Z,7.60
2019-06-26T21:27:02.163Z,7.42
2019-06-26T21:29:28.344Z,7.60
2019-06-26T21:31:54.660Z,7.33
2019-06-26T21:34:20.844Z,7.80
2019-06-26T21:36:47.087Z,7.45
2019-06-26T21:39:13.312Z,7.60
2019-06-26T21:41:39.477Z,7.95
2019-06-26T21:44:05.688Z,7.85
2019-06-26T21:46:31.906Z,7.60
2019-06-26T21:48:58.143Z,8.00
2019-06-26T21:51:24.353Z,7.33
2019-06-26T21:53:50.569Z,7.67
2019-06-26T21:56:16.741Z,7.30
2019-06-26T21:58:43.376Z,8.30
2019-06-26T22:01:09.655Z,7.67
2019-06-26T22:03:35.938Z,7.50
2019-06-26T22:06:02.256Z,7.55
2019-06-26T22:08:29.208Z,8.13
2019-06-26T22:10:55.867Z,7.37
2019-06-26T22:13:23.090Z,7.33
2019-06-26T22:15:49.492Z,7.53
2019-06-26T22:18:20.011Z,7.33
2019-06-26T22:20:46.609Z,7.35
2019-06-26T22:23:13.105Z,7.05
2019-06-26T22:25:50.762Z,7.12
2019-06-26T22:28:13.374Z,6.90
2019-06-26T22:30:39.698Z,7.08
2019-06-26T22:33:06.116Z,6.83
2019-06-26T22:35:32.744Z,6.92
2019-06-26T22:37:59.241Z,6.53
2019-06-26T22:40:25.497Z,6.97
2019-06-26T22:42:51.685Z,6.72
2019-06-26T22:45:18.031Z,6.78
2019-06-26T22:47:44.328Z,7.00
2019-06-26T22:50:10.835Z,6.83
2019-06-26T22:52:37.122Z,6.50
2019-06-26T22:55:07.329Z,6.60
2019-06-26T22:57:33.622Z,6.58
2019-06-26T22:59:59.971Z,6.33
2019-06-26T23:02:26.389Z,7.67
2019-06-26T23:04:52.668Z,6.17
2019-06-26T23:07:18.907Z,6.58
2019-06-26T23:09:45.391Z,6.40
2019-06-26T23:12:11.723Z,6.17
2019-06-26T23:14:37.939Z,5.80
2019-06-26T23:17:04.196Z,5.37
2019-06-26T23:19:30.354Z,5.60
2019-06-26T23:21:56.571Z,5.53
2019-06-26T23:24:22.818Z,5.80
2019-06-26T23:26:49.135Z,5.55
2019-06-26T23:29:15.608Z,5.53
2019-06-26T23:31:41.800Z,5.65
2019-06-26T23:34:08.041Z,5.12
2019-06-26T23:36:34.472Z,5.20
2019-06-26T23:39:00.633Z,5.65
2019-06-26T23:41:26.876Z,5.67
2019-06-26T23:43:53.097Z,5.50
2019-06-26T23:46:19.316Z,5.20
2019-06-26T23:48:45.943Z,4.87
2019-06-26T23:51:12.338Z,5.20
2019-06-26T23:53:38.562Z,5.08
2019-06-26T23:56:05.244Z,5.00
2019-06-26T23:58:31.835Z,4.87
